sensor_id;sensor_type;location;lat;lon;timestamp;P1;durP1;ratioP1;P2;durP2;ratioP2
75649;SDS011;64245;51.282;22.494;2024-03-23T00:53:55;14.00;;;5.75;;
75649;SDS011;64245;51.282;22.494;2024-03-23T00:56:22;17.98;;;7.35;;
75649;SDS011;64245;51.282;22.494;2024-03-23T00:58:47;15.20;;;8.23;;
75649;SDS011;64245;51.282;22.494;2024-03-23T01:01:14;15.50;;;6.90;;
75649;SDS011;64245;51.282;22.494;2024-03-23T01:03:39;15.43;;;7.10;;
75649;SDS011;64245;51.282;22.494;2024-03-23T01:06:05;20.30;;;7.50;;
75649;SDS011;64245;51.282;22.494;2024-03-23T01:08:31;15.43;;;7.13;;
75649;SDS011;64245;51.282;22.494;2024-03-23T01:10:59;16.73;;;7.57;;
75649;SDS011;64245;51.282;22.494;2024-03-23T01:13:25;15.57;;;6.57;;
75649;SDS011;64245;51.282;22.494;2024-03-23T01:15:52;14.13;;;6.05;;
75649;SDS011;64245;51.282;22.494;2024-03-23T01:18:19;19.83;;;7.40;;
75649;SDS011;64245;51.282;22.494;2024-03-23T01:20:46;14.85;;;6.97;;
75649;SDS011;64245;51.282;22.494;2024-03-23T01:23:12;18.98;;;7.50;;
75649;SDS011;64245;51.282;22.494;2024-03-23T01:25:38;15.65;;;7.40;;
75649;SDS011;64245;51.282;22.494;2024-03-23T01:28:04;9.82;;;4.82;;
75649;SDS011;64245;51.282;22.494;2024-03-23T01:30:35;16.88;;;8.32;;
75649;SDS011;64245;51.282;22.494;2024-03-23T01:33:01;17.30;;;7.60;;
75649;SDS011;64245;51.282;22.494;2024-03-23T01:35:28;18.33;;;7.30;;
75649;SDS011;64245;51.282;22.494;2024-03-23T01:37:54;18.13;;;7.28;;
75649;SDS011;64245;51.282;22.494;2024-03-23T01:40:20;16.05;;;7.50;;
75649;SDS011;64245;51.282;22.494;2024-03-23T01:42:55;17.27;;;7.25;;
75649;SDS011;64245;51.282;22.494;2024-03-23T01:45:27;17.13;;;6.68;;
75649;SDS011;64245;51.282;22.494;2024-03-23T01:47:53;15.82;;;6.78;;
75649;SDS011;64245;51.282;22.494;2024-03-23T01:50:20;14.23;;;5.22;;
75649;SDS011;64245;51.282;22.494;2024-03-23T01:52:46;16.33;;;6.28;;
75649;SDS011;64245;51.282;22.494;2024-03-23T01:55:12;14.40;;;6.50;;
75649;SDS011;64245;51.282;22.494;2024-03-23T01:57:38;16.67;;;6.32;;
75649;SDS011;64245;51.282;22.494;2024-03-23T02:00:04;13.52;;;5.72;;
75649;SDS011;64245;51.282;22.494;2024-03-23T02:02:31;19.30;;;6.78;;
75649;SDS011;64245;51.282;22.494;2024-03-23T02:04:57;13.82;;;5.72;;
75649;SDS011;64245;51.282;22.494;2024-03-23T02:07:24;15.20;;;5.97;;
75649;SDS011;64245;51.282;22.494;2024-03-23T02:09:53;14.05;;;6.03;;
75649;SDS011;64245;51.282;22.494;2024-03-23T02:12:20;16.52;;;7.57;;
75649;SDS011;64245;51.282;22.494;2024-03-23T02:14:47;11.70;;;5.25;;
75649;SDS011;64245;51.282;22.494;2024-03-23T02:17:12;15.70;;;5.72;;
75649;SDS011;64245;51.282;22.494;2024-03-23T02:19:39;16.45;;;6.90;;
75649;SDS011;64245;51.282;22.494;2024-03-23T02:22:04;16.90;;;7.10;;
75649;SDS011;64245;51.282;22.494;2024-03-23T02:24:31;17.70;;;7.65;;
75649;SDS011;64245;51.282;22.494;2024-03-23T02:26:56;16.60;;;6.45;;
75649;SDS011;64245;51.282;22.494;2024-03-23T02:29:22;15.73;;;7.35;;
75649;SDS011;64245;51.282;22.494;2024-03-23T02:31:48;12.70;;;6.53;;
75649;SDS011;64245;51.282;22.494;2024-03-23T02:34:14;11.02;;;6.18;;
75649;SDS011;64245;51.282;22.494;2024-03-23T02:36:40;16.00;;;7.13;;
75649;SDS011;64245;51.282;22.494;2024-03-23T02:39:05;13.63;;;6.28;;
75649;SDS011;64245;51.282;22.494;2024-03-23T02:41:31;15.40;;;6.93;;
75649;SDS011;64245;51.282;22.494;2024-03-23T02:43:57;15.82;;;7.13;;
75649;SDS011;64245;51.282;22.494;2024-03-23T02:46:23;15.43;;;5.38;;
75649;SDS011;64245;51.282;22.494;2024-03-23T02:48:49;17.35;;;7.20;;
75649;SDS011;64245;51.282;22.494;2024-03-23T02:51:15;14.52;;;6.88;;
75649;SDS011;64245;51.282;22.494;2024-03-23T02:53:41;15.32;;;5.93;;
75649;SDS011;64245;51.282;22.494;2024-03-23T02:56:06;14.65;;;6.15;;
75649;SDS011;64245;51.282;22.494;2024-03-23T02:58:33;16.05;;;6.78;;
75649;SDS011;64245;51.282;22.494;2024-03-23T03:00:58;14.40;;;6.82;;
75649;SDS011;64245;51.282;22.494;2024-03-23T03:03:24;18.50;;;7.05;;
75649;SDS011;64245;51.282;22.494;2024-03-23T03:05:56;14.75;;;7.47;;
75649;SDS011;64245;51.282;22.494;2024-03-23T03:08:22;15.00;;;6.60;;
75649;SDS011;64245;51.282;22.494;2024-03-23T03:10:48;14.02;;;6.85;;
75649;SDS011;64245;51.282;22.494;2024-03-23T03:13:14;16.55;;;8.35;;
75649;SDS011;64245;51.282;22.494;2024-03-23T03:15:40;15.18;;;7.43;;
75649;SDS011;64245;51.282;22.494;2024-03-23T03:18:07;21.02;;;8.15;;
75649;SDS011;64245;51.282;22.494;2024-03-23T03:20:33;16.20;;;8.18;;
75649;SDS011;64245;51.282;22.494;2024-03-23T03:23:00;20.02;;;8.40;;
75649;SDS011;64245;51.282;22.494;2024-03-23T03:25:26;21.05;;;7.47;;
75649;SDS011;64245;51.282;22.494;2024-03-23T03:27:52;13.48;;;5.55;;
75649;SDS011;64245;51.282;22.494;2024-03-23T03:30:17;17.08;;;7.88;;
75649;SDS011;64245;51.282;22.494;2024-03-23T03:32:43;25.90;;;8.93;;
75649;SDS011;64245;51.282;22.494;2024-03-23T03:35:09;19.85;;;7.70;;
75649;SDS011;64245;51.282;22.494;2024-03-23T03:37:35;17.77;;;7.35;;
75649;SDS011;64245;51.282;22.494;2024-03-23T03:40:01;18.67;;;7.30;;
75649;SDS011;64245;51.282;22.494;2024-03-23T03:42:27;24.58;;;9.45;;
75649;SDS011;64245;51.282;22.494;2024-03-23T03:44:52;18.50;;;8.20;;
75649;SDS011;64245;51.282;22.494;2024-03-23T03:47:19;21.00;;;8.57;;
75649;SDS011;64245;51.282;22.494;2024-03-23T03:49:45;17.58;;;8.02;;
75649;SDS011;64245;51.282;22.494;2024-03-23T03:52:11;20.58;;;7.35;;
75649;SDS011;64245;51.282;22.494;2024-03-23T03:54:37;22.27;;;8.95;;
75649;SDS011;64245;51.282;22.494;2024-03-23T03:57:03;16.10;;;7.75;;
75649;SDS011;64245;51.282;22.494;2024-03-23T03:59:29;16.75;;;8.18;;
75649;SDS011;64245;51.282;22.494;2024-03-23T04:01:55;17.83;;;8.15;;
75649;SDS011;64245;51.282;22.494;2024-03-23T04:04:21;18.42;;;8.25;;
75649;SDS011;64245;51.282;22.494;2024-03-23T04:06:48;23.67;;;9.10;;
75649;SDS011;64245;51.282;22.494;2024-03-23T04:09:14;13.80;;;5.97;;
75649;SDS011;64245;51.282;22.494;2024-03-23T04:11:40;21.23;;;8.55;;
75649;SDS011;64245;51.282;22.494;2024-03-23T04:14:06;20.10;;;7.60;;
75649;SDS011;64245;51.282;22.494;2024-03-23T04:16:36;19.40;;;8.05;;
75649;SDS011;64245;51.282;22.494;2024-03-23T04:19:04;22.70;;;8.23;;
75649;SDS011;64245;51.282;22.494;2024-03-23T04:21:31;21.25;;;9.32;;
75649;SDS011;64245;51.282;22.494;2024-03-23T04:23:57;17.58;;;6.68;;
75649;SDS011;64245;51.282;22.494;2024-03-23T04:26:23;21.05;;;7.72;;
75649;SDS011;64245;51.282;22.494;2024-03-23T04:28:48;16.63;;;6.97;;
75649;SDS011;64245;51.282;22.494;2024-03-23T04:31:14;23.08;;;8.30;;
75649;SDS011;64245;51.282;22.494;2024-03-23T04:33:40;18.23;;;8.32;;
75649;SDS011;64245;51.282;22.494;2024-03-23T04:36:07;19.45;;;8.98;;
75649;SDS011;64245;51.282;22.494;2024-03-23T04:38:32;16.98;;;8.70;;
75649;SDS011;64245;51.282;22.494;2024-03-23T04:40:59;18.63;;;8.35;;
75649;SDS011;64245;51.282;22.494;2024-03-23T04:43:25;25.90;;;8.90;;
75649;SDS011;64245;51.282;22.494;2024-03-23T04:45:52;18.45;;;7.10;;
75649;SDS011;64245;51.282;22.494;2024-03-23T04:48:21;20.17;;;9.18;;
75649;SDS011;64245;51.282;22.494;2024-03-23T04:50:48;18.52;;;6.40;;
75649;SDS011;64245;51.282;22.494;2024-03-23T04:53:15;16.88;;;8.30;;
75649;SDS011;64245;51.282;22.494;2024-03-23T04:55:42;19.58;;;8.50;;
75649;SDS011;64245;51.282;22.494;2024-03-23T04:58:08;18.65;;;8.50;;
75649;SDS011;64245;51.282;22.494;2024-03-23T05:00:34;15.75;;;6.47;;
75649;SDS011;64245;51.282;22.494;2024-03-23T05:03:00;27.10;;;8.43;;
75649;SDS011;64245;51.282;22.494;2024-03-23T05:05:26;17.73;;;7.40;;
75649;SDS011;64245;51.282;22.494;2024-03-23T05:07:52;21.58;;;11.10;;
75649;SDS011;64245;51.282;22.494;2024-03-23T05:10:18;24.90;;;9.02;;
75649;SDS011;64245;51.282;22.494;2024-03-23T05:12:43;17.58;;;7.63;;
75649;SDS011;64245;51.282;22.494;2024-03-23T05:15:11;21.20;;;8.00;;
75649;SDS011;64245;51.282;22.494;2024-03-23T05:17:37;17.67;;;8.45;;
75649;SDS011;64245;51.282;22.494;2024-03-23T05:20:04;18.85;;;8.55;;
75649;SDS011;64245;51.282;22.494;2024-03-23T05:22:38;15.18;;;8.82;;
75649;SDS011;64245;51.282;22.494;2024-03-23T05:25:05;24.92;;;8.35;;
75649;SDS011;64245;51.282;22.494;2024-03-23T05:27:33;21.15;;;9.25;;
75649;SDS011;64245;51.282;22.494;2024-03-23T05:29:59;22.23;;;9.65;;
75649;SDS011;64245;51.282;22.494;2024-03-23T05:32:25;25.02;;;10.48;;
75649;SDS011;64245;51.282;22.494;2024-03-23T05:34:51;18.80;;;8.02;;
75649;SDS011;64245;51.282;22.494;2024-03-23T05:37:21;22.92;;;11.10;;
75649;SDS011;64245;51.282;22.494;2024-03-23T05:39:50;22.48;;;11.38;;
75649;SDS011;64245;51.282;22.494;2024-03-23T05:42:16;22.38;;;10.45;;
75649;SDS011;64245;51.282;22.494;2024-03-23T05:44:46;16.55;;;9.30;;
75649;SDS011;64245;51.282;22.494;2024-03-23T05:47:12;28.42;;;9.95;;
75649;SDS011;64245;51.282;22.494;2024-03-23T05:49:40;19.65;;;11.27;;
75649;SDS011;64245;51.282;22.494;2024-03-23T05:54:35;20.35;;;9.25;;
75649;SDS011;64245;51.282;22.494;2024-03-23T05:57:01;20.58;;;9.85;;
75649;SDS011;64245;51.282;22.494;2024-03-23T05:59:28;21.48;;;10.38;;
75649;SDS011;64245;51.282;22.494;2024-03-23T06:01:54;26.25;;;9.57;;
75649;SDS011;64245;51.282;22.494;2024-03-23T06:04:20;24.77;;;10.77;;
75649;SDS011;64245;51.282;22.494;2024-03-23T06:06:50;20.73;;;8.75;;
75649;SDS011;64245;51.282;22.494;2024-03-23T06:11:48;22.40;;;9.60;;
75649;SDS011;64245;51.282;22.494;2024-03-23T06:14:15;18.92;;;11.07;;
75649;SDS011;64245;51.282;22.494;2024-03-23T06:16:40;20.85;;;9.23;;
75649;SDS011;64245;51.282;22.494;2024-03-23T06:19:07;23.10;;;8.93;;
75649;SDS011;64245;51.282;22.494;2024-03-23T06:21:33;25.65;;;10.07;;
75649;SDS011;64245;51.282;22.494;2024-03-23T06:23:59;19.60;;;9.43;;
75649;SDS011;64245;51.282;22.494;2024-03-23T06:26:24;20.50;;;9.38;;
75649;SDS011;64245;51.282;22.494;2024-03-23T06:28:51;21.60;;;9.93;;
75649;SDS011;64245;51.282;22.494;2024-03-23T06:31:16;22.02;;;9.63;;
75649;SDS011;64245;51.282;22.494;2024-03-23T06:33:42;24.17;;;9.13;;
75649;SDS011;64245;51.282;22.494;2024-03-23T06:36:08;23.50;;;9.77;;
75649;SDS011;64245;51.282;22.494;2024-03-23T06:38:36;24.17;;;10.18;;
75649;SDS011;64245;51.282;22.494;2024-03-23T06:41:03;17.50;;;11.48;;
75649;SDS011;64245;51.282;22.494;2024-03-23T06:43:30;23.42;;;10.02;;
75649;SDS011;64245;51.282;22.494;2024-03-23T06:45:56;19.40;;;8.95;;
75649;SDS011;64245;51.282;22.494;2024-03-23T06:48:22;16.33;;;8.13;;
75649;SDS011;64245;51.282;22.494;2024-03-23T06:50:48;19.23;;;8.98;;
75649;SDS011;64245;51.282;22.494;2024-03-23T06:53:14;17.90;;;8.25;;
75649;SDS011;64245;51.282;22.494;2024-03-23T06:55:40;18.85;;;8.65;;
75649;SDS011;64245;51.282;22.494;2024-03-23T06:58:07;20.27;;;8.00;;
75649;SDS011;64245;51.282;22.494;2024-03-23T07:00:33;16.27;;;7.93;;
75649;SDS011;64245;51.282;22.494;2024-03-23T07:03:00;15.32;;;6.72;;
75649;SDS011;64245;51.282;22.494;2024-03-23T07:05:26;13.32;;;7.18;;
75649;SDS011;64245;51.282;22.494;2024-03-23T07:07:52;15.00;;;8.20;;
75649;SDS011;64245;51.282;22.494;2024-03-23T07:10:18;16.50;;;8.60;;
75649;SDS011;64245;51.282;22.494;2024-03-23T07:12:44;13.80;;;7.00;;
75649;SDS011;64245;51.282;22.494;2024-03-23T07:15:09;17.30;;;8.75;;
75649;SDS011;64245;51.282;22.494;2024-03-23T07:17:36;13.18;;;7.38;;
75649;SDS011;64245;51.282;22.494;2024-03-23T07:20:02;11.77;;;6.00;;
75649;SDS011;64245;51.282;22.494;2024-03-23T07:22:32;13.38;;;7.07;;
75649;SDS011;64245;51.282;22.494;2024-03-23T07:25:01;13.85;;;5.63;;
75649;SDS011;64245;51.282;22.494;2024-03-23T07:27:27;10.30;;;5.15;;
75649;SDS011;64245;51.282;22.494;2024-03-23T07:29:53;6.80;;;4.60;;
75649;SDS011;64245;51.282;22.494;2024-03-23T07:32:20;15.13;;;6.07;;
75649;SDS011;64245;51.282;22.494;2024-03-23T07:34:46;16.83;;;6.60;;
75649;SDS011;64245;51.282;22.494;2024-03-23T07:37:12;12.73;;;5.15;;
75649;SDS011;64245;51.282;22.494;2024-03-23T07:39:41;4.15;;;2.92;;
75649;SDS011;64245;51.282;22.494;2024-03-23T07:42:08;12.63;;;5.65;;
75649;SDS011;64245;51.282;22.494;2024-03-23T07:44:34;12.18;;;5.97;;
75649;SDS011;64245;51.282;22.494;2024-03-23T07:47:00;10.40;;;5.30;;
75649;SDS011;64245;51.282;22.494;2024-03-23T07:49:26;13.07;;;6.18;;
75649;SDS011;64245;51.282;22.494;2024-03-23T07:51:52;19.40;;;6.95;;
75649;SDS011;64245;51.282;22.494;2024-03-23T07:54:18;14.90;;;6.05;;
75649;SDS011;64245;51.282;22.494;2024-03-23T07:56:47;14.05;;;5.65;;
75649;SDS011;64245;51.282;22.494;2024-03-23T07:59:13;18.60;;;5.28;;
75649;SDS011;64245;51.282;22.494;2024-03-23T08:01:39;16.27;;;6.22;;
75649;SDS011;64245;51.282;22.494;2024-03-23T08:04:05;11.75;;;5.70;;
75649;SDS011;64245;51.282;22.494;2024-03-23T08:06:31;11.85;;;5.43;;
75649;SDS011;64245;51.282;22.494;2024-03-23T08:09:06;12.13;;;6.50;;
75649;SDS011;64245;51.282;22.494;2024-03-23T08:11:32;12.50;;;5.63;;
75649;SDS011;64245;51.282;22.494;2024-03-23T08:14:00;12.15;;;5.80;;
75649;SDS011;64245;51.282;22.494;2024-03-23T08:16:27;9.35;;;5.32;;
75649;SDS011;64245;51.282;22.494;2024-03-23T08:18:53;11.68;;;5.57;;
75649;SDS011;64245;51.282;22.494;2024-03-23T08:21:21;13.52;;;5.63;;
75649;SDS011;64245;51.282;22.494;2024-03-23T08:23:46;13.75;;;5.93;;
75649;SDS011;64245;51.282;22.494;2024-03-23T08:26:14;11.52;;;6.18;;
75649;SDS011;64245;51.282;22.494;2024-03-23T08:28:42;14.18;;;5.72;;
75649;SDS011;64245;51.282;22.494;2024-03-23T08:31:08;8.90;;;4.57;;
75649;SDS011;64245;51.282;22.494;2024-03-23T08:33:38;14.10;;;6.63;;
75649;SDS011;64245;51.282;22.494;2024-03-23T08:36:06;16.85;;;5.68;;
75649;SDS011;64245;51.282;22.494;2024-03-23T08:38:33;10.35;;;5.60;;
75649;SDS011;64245;51.282;22.494;2024-03-23T08:41:01;19.17;;;6.45;;
75649;SDS011;64245;51.282;22.494;2024-03-23T08:43:32;12.73;;;5.90;;
75649;SDS011;64245;51.282;22.494;2024-03-23T08:46:05;12.27;;;5.97;;
75649;SDS011;64245;51.282;22.494;2024-03-23T08:48:32;14.02;;;6.10;;
75649;SDS011;64245;51.282;22.494;2024-03-23T08:51:04;11.43;;;6.05;;
75649;SDS011;64245;51.282;22.494;2024-03-23T08:53:32;12.13;;;4.97;;
75649;SDS011;64245;51.282;22.494;2024-03-23T08:55:59;9.30;;;5.13;;
75649;SDS011;64245;51.282;22.494;2024-03-23T08:58:26;12.32;;;5.88;;
75649;SDS011;64245;51.282;22.494;2024-03-23T09:00:54;12.48;;;5.53;;
75649;SDS011;64245;51.282;22.494;2024-03-23T09:03:22;8.88;;;5.00;;
75649;SDS011;64245;51.282;22.494;2024-03-23T09:05:49;16.77;;;5.70;;
75649;SDS011;64245;51.282;22.494;2024-03-23T09:08:15;8.98;;;4.78;;
75649;SDS011;64245;51.282;22.494;2024-03-23T09:10:41;13.35;;;5.60;;
75649;SDS011;64245;51.282;22.494;2024-03-23T09:13:07;15.60;;;6.55;;
75649;SDS011;64245;51.282;22.494;2024-03-23T09:15:45;9.90;;;4.38;;
75649;SDS011;64245;51.282;22.494;2024-03-23T09:18:14;14.10;;;5.93;;
75649;SDS011;64245;51.282;22.494;2024-03-23T09:20:40;8.90;;;2.92;;
75649;SDS011;64245;51.282;22.494;2024-03-23T09:23:06;8.13;;;4.18;;
75649;SDS011;64245;51.282;22.494;2024-03-23T09:25:35;8.50;;;3.63;;
75649;SDS011;64245;51.282;22.494;2024-03-23T09:28:02;11.00;;;5.57;;
75649;SDS011;64245;51.282;22.494;2024-03-23T09:30:28;12.85;;;4.75;;
75649;SDS011;64245;51.282;22.494;2024-03-23T09:32:54;13.50;;;5.60;;
75649;SDS011;64245;51.282;22.494;2024-03-23T09:35:20;6.13;;;3.90;;
75649;SDS011;64245;51.282;22.494;2024-03-23T09:37:45;10.20;;;5.05;;
75649;SDS011;64245;51.282;22.494;2024-03-23T09:40:14;7.30;;;4.20;;
75649;SDS011;64245;51.282;22.494;2024-03-23T09:42:41;10.77;;;4.20;;
75649;SDS011;64245;51.282;22.494;2024-03-23T09:45:17;10.30;;;4.65;;
75649;SDS011;64245;51.282;22.494;2024-03-23T09:47:46;13.55;;;4.68;;
75649;SDS011;64245;51.282;22.494;2024-03-23T09:50:13;6.07;;;3.67;;
75649;SDS011;64245;51.282;22.494;2024-03-23T09:52:39;12.18;;;5.07;;
75649;SDS011;64245;51.282;22.494;2024-03-23T09:55:08;10.20;;;4.78;;
75649;SDS011;64245;51.282;22.494;2024-03-23T09:57:34;7.13;;;3.85;;
75649;SDS011;64245;51.282;22.494;2024-03-23T10:00:00;14.40;;;4.65;;
75649;SDS011;64245;51.282;22.494;2024-03-23T10:02:26;11.95;;;4.68;;
75649;SDS011;64245;51.282;22.494;2024-03-23T10:04:54;10.13;;;5.03;;
75649;SDS011;64245;51.282;22.494;2024-03-23T10:07:20;6.95;;;3.50;;
75649;SDS011;64245;51.282;22.494;2024-03-23T10:09:48;6.70;;;3.78;;
75649;SDS011;64245;51.282;22.494;2024-03-23T10:12:15;7.18;;;4.10;;
75649;SDS011;64245;51.282;22.494;2024-03-23T10:14:42;11.98;;;4.63;;
75649;SDS011;64245;51.282;22.494;2024-03-23T10:17:16;7.40;;;4.38;;
75649;SDS011;64245;51.282;22.494;2024-03-23T10:19:44;10.98;;;4.80;;
75649;SDS011;64245;51.282;22.494;2024-03-23T10:22:16;6.97;;;4.28;;
75649;SDS011;64245;51.282;22.494;2024-03-23T10:24:44;11.70;;;5.55;;
75649;SDS011;64245;51.282;22.494;2024-03-23T10:27:12;9.27;;;4.70;;
75649;SDS011;64245;51.282;22.494;2024-03-23T10:29:42;9.95;;;3.45;;
75649;SDS011;64245;51.282;22.494;2024-03-23T10:32:08;11.77;;;4.78;;
75649;SDS011;64245;51.282;22.494;2024-03-23T10:34:36;13.23;;;5.20;;
75649;SDS011;64245;51.282;22.494;2024-03-23T10:37:03;8.93;;;4.65;;
75649;SDS011;64245;51.282;22.494;2024-03-23T10:39:30;8.50;;;4.50;;
75649;SDS011;64245;51.282;22.494;2024-03-23T10:41:59;9.90;;;5.05;;
75649;SDS011;64245;51.282;22.494;2024-03-23T10:44:27;7.70;;;3.92;;
75649;SDS011;64245;51.282;22.494;2024-03-23T10:46:55;8.80;;;3.60;;
75649;SDS011;64245;51.282;22.494;2024-03-23T10:49:26;10.70;;;5.30;;
75649;SDS011;64245;51.282;22.494;2024-03-23T10:51:55;8.68;;;4.28;;
75649;SDS011;64245;51.282;22.494;2024-03-23T10:54:23;9.57;;;4.28;;
75649;SDS011;64245;51.282;22.494;2024-03-23T10:56:51;6.50;;;2.75;;
75649;SDS011;64245;51.282;22.494;2024-03-23T10:59:30;6.82;;;4.20;;
75649;SDS011;64245;51.282;22.494;2024-03-23T11:02:00;4.55;;;2.78;;
75649;SDS011;64245;51.282;22.494;2024-03-23T11:04:36;11.23;;;4.63;;
75649;SDS011;64245;51.282;22.494;2024-03-23T11:07:38;8.73;;;4.38;;
75649;SDS011;64245;51.282;22.494;2024-03-23T11:09:59;6.47;;;3.25;;
75649;SDS011;64245;51.282;22.494;2024-03-23T11:12:26;8.38;;;4.18;;
75649;SDS011;64245;51.282;22.494;2024-03-23T11:14:54;8.43;;;4.18;;
75649;SDS011;64245;51.282;22.494;2024-03-23T11:17:27;7.68;;;4.00;;
75649;SDS011;64245;51.282;22.494;2024-03-23T11:19:54;6.07;;;3.85;;
75649;SDS011;64245;51.282;22.494;2024-03-23T11:22:39;6.93;;;3.60;;
75649;SDS011;64245;51.282;22.494;2024-03-23T11:25:13;9.32;;;4.85;;
75649;SDS011;64245;51.282;22.494;2024-03-23T11:27:39;4.20;;;3.85;;
75649;SDS011;64245;51.282;22.494;2024-03-23T11:30:13;9.82;;;4.00;;
75649;SDS011;64245;51.282;22.494;2024-03-23T11:32:45;8.40;;;4.20;;
75649;SDS011;64245;51.282;22.494;2024-03-23T11:35:28;8.48;;;4.68;;
75649;SDS011;64245;51.282;22.494;2024-03-23T11:38:10;8.98;;;4.03;;
75649;SDS011;64245;51.282;22.494;2024-03-23T11:40:41;8.05;;;3.70;;
75649;SDS011;64245;51.282;22.494;2024-03-23T11:43:08;6.80;;;3.42;;
75649;SDS011;64245;51.282;22.494;2024-03-23T11:45:46;7.22;;;3.80;;
75649;SDS011;64245;51.282;22.494;2024-03-23T11:48:17;3.10;;;2.00;;
75649;SDS011;64245;51.282;22.494;2024-03-23T11:50:45;6.97;;;3.53;;
75649;SDS011;64245;51.282;22.494;2024-03-23T11:55:52;10.10;;;3.42;;
75649;SDS011;64245;51.282;22.494;2024-03-23T11:58:22;7.18;;;4.03;;
75649;SDS011;64245;51.282;22.494;2024-03-23T12:00:54;5.50;;;3.00;;
75649;SDS011;64245;51.282;22.494;2024-03-23T12:03:22;7.03;;;3.92;;
75649;SDS011;64245;51.282;22.494;2024-03-23T12:05:52;7.70;;;5.00;;
75649;SDS011;64245;51.282;22.494;2024-03-23T12:08:20;7.60;;;4.03;;
75649;SDS011;64245;51.282;22.494;2024-03-23T12:10:48;6.53;;;4.30;;
75649;SDS011;64245;51.282;22.494;2024-03-23T12:13:19;7.28;;;3.47;;
75649;SDS011;64245;51.282;22.494;2024-03-23T12:15:46;7.40;;;4.50;;
75649;SDS011;64245;51.282;22.494;2024-03-23T12:18:13;5.95;;;3.25;;
75649;SDS011;64245;51.282;22.494;2024-03-23T12:20:39;6.10;;;3.30;;
75649;SDS011;64245;51.282;22.494;2024-03-23T12:23:08;7.05;;;4.10;;
75649;SDS011;64245;51.282;22.494;2024-03-23T12:25:38;7.07;;;3.92;;
75649;SDS011;64245;51.282;22.494;2024-03-23T12:28:05;7.47;;;3.90;;
75649;SDS011;64245;51.282;22.494;2024-03-23T12:30:35;6.60;;;4.30;;
75649;SDS011;64245;51.282;22.494;2024-03-23T12:33:04;7.03;;;3.90;;
75649;SDS011;64245;51.282;22.494;2024-03-23T12:35:30;5.85;;;3.40;;
75649;SDS011;64245;51.282;22.494;2024-03-23T12:37:56;4.93;;;2.75;;
75649;SDS011;64245;51.282;22.494;2024-03-23T12:40:22;5.70;;;2.92;;
75649;SDS011;64245;51.282;22.494;2024-03-23T12:42:48;5.80;;;3.13;;
75649;SDS011;64245;51.282;22.494;2024-03-23T12:45:14;8.35;;;3.97;;
75649;SDS011;64245;51.282;22.494;2024-03-23T12:47:40;6.38;;;4.25;;
75649;SDS011;64245;51.282;22.494;2024-03-23T12:50:07;6.32;;;3.35;;
75649;SDS011;64245;51.282;22.494;2024-03-23T12:52:33;5.50;;;4.30;;
75649;SDS011;64245;51.282;22.494;2024-03-23T12:54:59;6.68;;;3.80;;
75649;SDS011;64245;51.282;22.494;2024-03-23T12:57:25;6.05;;;3.42;;
75649;SDS011;64245;51.282;22.494;2024-03-23T12:59:51;6.28;;;3.83;;
75649;SDS011;64245;51.282;22.494;2024-03-23T13:02:19;5.90;;;3.63;;
75649;SDS011;64245;51.282;22.494;2024-03-23T13:04:54;6.05;;;3.63;;
75649;SDS011;64245;51.282;22.494;2024-03-23T13:07:20;8.93;;;3.63;;
75649;SDS011;64245;51.282;22.494;2024-03-23T13:09:50;6.38;;;3.47;;
75649;SDS011;64245;51.282;22.494;2024-03-23T13:12:18;9.10;;;4.10;;
75649;SDS011;64245;51.282;22.494;2024-03-23T13:14:45;5.97;;;3.90;;
75649;SDS011;64245;51.282;22.494;2024-03-23T13:17:11;6.97;;;3.60;;
75649;SDS011;64245;51.282;22.494;2024-03-23T13:19:37;4.88;;;3.42;;
75649;SDS011;64245;51.282;22.494;2024-03-23T13:22:03;6.50;;;3.20;;
75649;SDS011;64245;51.282;22.494;2024-03-23T13:24:30;5.53;;;3.40;;
75649;SDS011;64245;51.282;22.494;2024-03-23T13:26:56;5.70;;;3.10;;
75649;SDS011;64245;51.282;22.494;2024-03-23T13:29:23;5.88;;;3.28;;
75649;SDS011;64245;51.282;22.494;2024-03-23T13:31:49;6.50;;;3.03;;
75649;SDS011;64245;51.282;22.494;2024-03-23T13:34:17;7.35;;;3.63;;
75649;SDS011;64245;51.282;22.494;2024-03-23T13:36:44;5.75;;;3.90;;
75649;SDS011;64245;51.282;22.494;2024-03-23T13:39:11;4.70;;;2.92;;
75649;SDS011;64245;51.282;22.494;2024-03-23T13:41:37;6.40;;;3.13;;
75649;SDS011;64245;51.282;22.494;2024-03-23T13:44:09;5.63;;;3.50;;
75649;SDS011;64245;51.282;22.494;2024-03-23T13:46:36;5.28;;;3.13;;
75649;SDS011;64245;51.282;22.494;2024-03-23T13:49:04;7.35;;;3.22;;
75649;SDS011;64245;51.282;22.494;2024-03-23T13:51:30;5.60;;;3.08;;
75649;SDS011;64245;51.282;22.494;2024-03-23T13:53:57;4.38;;;3.30;;
75649;SDS011;64245;51.282;22.494;2024-03-23T13:56:23;6.85;;;3.40;;
75649;SDS011;64245;51.282;22.494;2024-03-23T13:58:49;7.18;;;3.85;;
75649;SDS011;64245;51.282;22.494;2024-03-23T14:01:15;5.50;;;3.70;;
75649;SDS011;64245;51.282;22.494;2024-03-23T14:03:42;6.50;;;4.45;;
75649;SDS011;64245;51.282;22.494;2024-03-23T14:06:08;6.53;;;3.38;;
75649;SDS011;64245;51.282;22.494;2024-03-23T14:08:35;6.13;;;3.40;;
75649;SDS011;64245;51.282;22.494;2024-03-23T14:11:04;5.95;;;3.42;;
75649;SDS011;64245;51.282;22.494;2024-03-23T14:13:34;4.45;;;2.95;;
75649;SDS011;64245;51.282;22.494;2024-03-23T14:16:00;5.95;;;4.47;;
75649;SDS011;64245;51.282;22.494;2024-03-23T14:18:27;7.15;;;3.47;;
75649;SDS011;64245;51.282;22.494;2024-03-23T14:20:57;6.35;;;3.28;;
75649;SDS011;64245;51.282;22.494;2024-03-23T14:23:28;4.10;;;3.08;;
75649;SDS011;64245;51.282;22.494;2024-03-23T14:25:56;5.20;;;3.75;;
75649;SDS011;64245;51.282;22.494;2024-03-23T14:28:22;6.22;;;4.03;;
75649;SDS011;64245;51.282;22.494;2024-03-23T14:30:49;6.57;;;3.90;;
75649;SDS011;64245;51.282;22.494;2024-03-23T14:33:16;4.93;;;3.55;;
75649;SDS011;64245;51.282;22.494;2024-03-23T14:35:43;6.05;;;3.20;;
75649;SDS011;64245;51.282;22.494;2024-03-23T14:38:09;5.57;;;3.10;;
75649;SDS011;64245;51.282;22.494;2024-03-23T14:40:35;4.65;;;2.70;;
75649;SDS011;64245;51.282;22.494;2024-03-23T14:43:02;6.15;;;3.55;;
75649;SDS011;64245;51.282;22.494;2024-03-23T14:45:28;6.82;;;3.70;;
75649;SDS011;64245;51.282;22.494;2024-03-23T14:47:54;7.35;;;3.50;;
75649;SDS011;64245;51.282;22.494;2024-03-23T14:50:20;7.03;;;3.97;;
75649;SDS011;64245;51.282;22.494;2024-03-23T14:52:47;6.00;;;3.80;;
75649;SDS011;64245;51.282;22.494;2024-03-23T14:55:13;3.92;;;2.75;;
75649;SDS011;64245;51.282;22.494;2024-03-23T14:57:39;5.00;;;2.75;;
75649;SDS011;64245;51.282;22.494;2024-03-23T15:00:08;6.82;;;3.65;;
75649;SDS011;64245;51.282;22.494;2024-03-23T15:02:36;3.85;;;2.50;;
75649;SDS011;64245;51.282;22.494;2024-03-23T15:05:02;5.28;;;3.28;;
75649;SDS011;64245;51.282;22.494;2024-03-23T15:07:33;7.32;;;2.72;;
75649;SDS011;64245;51.282;22.494;2024-03-23T15:09:59;5.93;;;3.75;;
75649;SDS011;64245;51.282;22.494;2024-03-23T15:12:25;5.25;;;3.00;;
75649;SDS011;64245;51.282;22.494;2024-03-23T15:14:50;4.72;;;3.30;;
75649;SDS011;64245;51.282;22.494;2024-03-23T15:17:16;5.15;;;3.13;;
75649;SDS011;64245;51.282;22.494;2024-03-23T15:19:42;5.15;;;3.05;;
75649;SDS011;64245;51.282;22.494;2024-03-23T15:22:08;6.20;;;3.20;;
75649;SDS011;64245;51.282;22.494;2024-03-23T15:24:35;8.20;;;3.83;;
75649;SDS011;64245;51.282;22.494;2024-03-23T15:27:04;4.18;;;2.92;;